Time;durP1;ratioP1;P1;durP2;ratioP2;P2;SDS_P1;SDS_P2;PMS_P1;PMS_P2;Temp;Humidity;BMP_temperature;BMP_pressure;BME280_temperature;BME280_humidity;BME280_pressure;Samples;Min_cycle;Max_cycle;Signal;HPM_P1;HPM_P2
2021/10/13 00:01:58;;;;;;;;;;;;;;;6.55;83.01;100276.09;5048524;28;20297;-70
2021/10/13 00:04:23;;;;;;;;;;;;;;;6.55;83.16;100273.47;5032687;28;20718;-70
2021/10/13 00:06:48;;;;;;;;;;;;;;;6.55;83.25;100276.94;5032209;28;20410;-71
2021/10/13 00:09:13;;;;;;;;;;;;;;;6.59;83.19;100278.56;5049446;28;19929;-70
2021/10/13 00:11:39;;;;;;;;;;;;;;;6.60;83.12;100280.31;5049269;28;19928;-70
2021/10/13 00:14:04;;;;;;;;;;;;;;;6.61;83.17;100286.41;5051738;28;19924;-70
2021/10/13 00:16:31;;;;;;;;;;;;;;;6.59;83.09;100283.81;5050745;28;19917;-70
2021/10/13 00:18:56;;;;;;;;;;;;;;;6.57;83.01;100287.38;5050272;28;19932;-69
2021/10/13 00:21:21;;;;;;;;;;;;;;;6.57;83.02;100284.75;5048695;28;19917;-71
2021/10/13 00:23:46;;;;;;;;;;;;;;;6.53;82.99;100288.34;5049973;28;20332;-71
2021/10/13 00:26:12;;;;;;;;;;;;;;;6.49;83.29;100286.69;5049718;28;20365;-71
2021/10/13 00:28:37;;;;;;;;;;;;;;;6.46;83.21;100290.25;5048905;28;19916;-72
2021/10/13 00:31:02;;;;;;;;;;;;;;;6.42;82.98;100299.06;5048991;28;19964;-71
2021/10/13 00:33:27;;;;;;;;;;;;;;;6.39;83.26;100297.38;5031806;28;19959;-71
2021/10/13 00:35:52;;;;;;;;;;;;;;;6.38;82.92;100292.22;5050185;28;19975;-70
2021/10/13 00:38:18;;;;;;;;;;;;;;;6.33;83.07;100299.31;5049580;28;20016;-71
2021/10/13 00:40:43;;;;;;;;;;;;;;;6.32;83.02;100297.56;5048195;28;19923;-71
2021/10/13 00:43:08;;;;;;;;;;;;;;;6.33;82.99;100304.56;5049362;28;19991;-70
2021/10/13 00:45:33;;;;;;;;;;;;;;;6.31;82.96;100299.34;5031277;28;19917;-70
2021/10/13 00:47:59;;;;;;;;;;;;;;;6.30;83.16;100296.75;5048990;28;19991;-71
2021/10/13 00:50:24;;;;;;;;;;;;;;;6.30;82.97;100294.13;5049147;28;20400;-69
2021/10/13 00:52:49;;;;;;;;;;;;;;;6.29;83.17;100295.03;5049431;28;19925;-70
2021/10/13 00:55:19;;;;;;;;;;;;;;;6.26;82.99;100292.50;5049385;28;19917;-70
2021/10/13 00:57:45;;;;;;;;;;;;;;;6.26;82.95;100295.97;5052212;28;19920;-70
2021/10/13 01:00:10;;;;;;;;;;;;;;;6.27;83.41;100288.97;5048413;28;20009;-68
2021/10/13 01:02:41;;;;;;;;;;;;;;;6.28;83.29;100293.34;5023913;28;19995;-69
2021/10/13 01:05:25;;;;;;;;;;;;;;;6.27;83.91;100297.69;5049248;28;20433;-69
2021/10/13 01:07:59;;;;;;;;;;;;;;;6.26;83.63;100297.75;5049395;28;19920;-69
2021/10/13 01:10:27;;;;;;;;;;;;;;;6.30;83.36;100299.38;5030425;28;19916;-69
2021/10/13 01:12:57;;;;;;;;;;;;;;;6.31;83.23;100298.50;5047315;28;20295;-69
2021/10/13 01:15:41;;;;;;;;;;;;;;;6.30;83.13;100304.59;5030944;28;19966;-70
2021/10/13 01:18:24;;;;;;;;;;;;;;;6.28;82.94;100299.41;5049018;28;20319;-69
2021/10/13 01:20:55;;;;;;;;;;;;;;;6.27;83.39;100302.91;5048187;28;19916;-70
2021/10/13 01:23:33;;;;;;;;;;;;;;;6.22;83.04;100300.41;5049415;28;19974;-69
2021/10/13 01:26:10;;;;;;;;;;;;;;;6.14;82.95;100294.50;5048748;28;19916;-69
2021/10/13 01:28:36;;;;;;;;;;;;;;;6.12;83.54;100295.41;5049788;28;19917;-69
2021/10/13 01:31:21;;;;;;;;;;;;;;;6.08;83.39;100297.25;5050412;28;19928;-70
2021/10/13 01:33:57;;;;;;;;;;;;;;;6.07;83.88;100292.91;5048171;28;19955;-70
2021/10/13 01:36:25;;;;;;;;;;;;;;;6.09;83.38;100296.34;5048602;28;20334;-70
2021/10/13 01:38:52;;;;;;;;;;;;;;;6.11;83.55;100299.81;5049427;28;19921;-70
2021/10/13 01:41:19;;;;;;;;;;;;;;;6.15;83.01;100298.84;5051068;28;19956;-70
2021/10/13 01:43:46;;;;;;;;;;;;;;;6.14;83.14;100294.50;5052750;28;19916;-71
2021/10/13 01:46:12;;;;;;;;;;;;;;;6.15;83.00;100295.34;5053064;28;20024;-70
2021/10/13 01:48:38;;;;;;;;;;;;;;;6.13;83.23;100298.03;5052921;28;19916;-70
2021/10/13 01:51:03;;;;;;;;;;;;;;;6.08;83.07;100299.88;5051526;28;19917;-70
2021/10/13 01:53:29;;;;;;;;;;;;;;;6.08;82.91;100305.13;5052363;28;19917;-70
2021/10/13 01:55:55;;;;;;;;;;;;;;;6.10;83.31;100313.78;5052875;28;19917;-71
2021/10/13 01:58:22;;;;;;;;;;;;;;;6.09;82.99;100304.22;5052840;28;19970;-68
2021/10/13 02:00:49;;;;;;;;;;;;;;;6.11;83.18;100307.66;5051919;28;19995;-71
2021/10/13 02:03:16;;;;;;;;;;;;;;;6.13;83.10;100310.22;5035981;28;20094;-71
2021/10/13 02:05:43;;;;;;;;;;;;;;;6.12;82.96;100301.50;5052885;28;19944;-70
2021/10/13 02:08:08;;;;;;;;;;;;;;;6.14;83.02;100307.56;5054882;28;19916;-71
2021/10/13 02:10:35;;;;;;;;;;;;;;;6.17;83.06;100312.75;5051459;28;20402;-71
2021/10/13 02:13:00;;;;;;;;;;;;;;;6.20;83.27;100315.31;5052339;28;19963;-71
2021/10/13 02:15:27;;;;;;;;;;;;;;;6.23;83.24;100317.84;5034048;28;20021;-71
2021/10/13 02:17:53;;;;;;;;;;;;;;;6.26;83.14;100321.31;5052777;28;19929;-71
2021/10/13 02:20:19;;;;;;;;;;;;;;;6.27;83.48;100318.63;5051748;28;19963;-71
2021/10/13 02:22:47;;;;;;;;;;;;;;;6.31;83.29;100314.19;5052302;28;20428;-71
2021/10/13 02:25:13;;;;;;;;;;;;;;;6.36;83.21;100314.94;5052218;28;19925;-70
2021/10/13 02:27:54;;;;;;;;;;;;;;;6.38;83.05;100326.25;5052083;28;19917;-71
2021/10/13 02:30:19;;;;;;;;;;;;;;;6.39;83.74;100322.72;5051637;28;19965;-71
2021/10/13 02:32:44;;;;;;;;;;;;;;;6.45;83.25;100322.59;5051764;28;20387;-70
2021/10/13 02:35:10;;;;;;;;;;;;;;;6.49;83.33;100313.75;5052010;28;20313;-71
2021/10/13 02:37:35;;;;;;;;;;;;;;;6.47;83.70;100318.16;5033830;28;19924;-71
2021/10/13 02:40:00;;;;;;;;;;;;;;;6.49;83.56;100318.13;5051441;28;19917;-70
2021/10/13 02:42:25;;;;;;;;;;;;;;;6.52;83.63;100323.28;5051562;28;19924;-71
2021/10/13 02:44:51;;;;;;;;;;;;;;;6.58;83.99;100331.88;5052248;28;19917;-70
2021/10/13 02:47:18;;;;;;;;;;;;;;;6.60;83.65;100337.94;5034176;28;19921;-70
2021/10/13 02:49:49;;;;;;;;;;;;;;;6.69;83.67;100339.47;5051441;28;19980;-70
2021/10/13 02:52:26;;;;;;;;;;;;;;;6.75;83.48;100346.34;5049866;28;19999;-70
2021/10/13 02:54:51;;;;;;;;;;;;;;;6.78;83.60;100344.47;5051727;28;19975;-71
2021/10/13 02:57:17;;;;;;;;;;;;;;;6.84;83.63;100336.47;5051585;28;19921;-71
2021/10/13 02:59:44;;;;;;;;;;;;;;;6.89;83.65;100341.59;5051584;28;20327;-71
2021/10/13 03:02:19;;;;;;;;;;;;;;;6.95;83.56;100349.31;5050933;28;20003;-71
2021/10/13 03:04:48;;;;;;;;;;;;;;;7.00;83.22;100347.44;5053902;28;19924;-71
2021/10/13 03:07:16;;;;;;;;;;;;;;;7.01;83.48;100337.78;5051166;28;19999;-71
2021/10/13 03:09:48;;;;;;;;;;;;;;;7.04;83.02;100337.75;5051339;28;20380;-71
2021/10/13 03:12:14;;;;;;;;;;;;;;;7.07;83.58;100338.50;5050954;28;19925;-71
2021/10/13 03:14:40;;;;;;;;;;;;;;;7.13;83.63;100347.97;5033636;28;19920;-71
2021/10/13 03:17:05;;;;;;;;;;;;;;;7.17;83.36;100344.38;5051014;28;19975;-71
2021/10/13 03:19:34;;;;;;;;;;;;;;;7.19;83.26;100346.97;5051189;28;19921;-71
2021/10/13 03:22:00;;;;;;;;;;;;;;;7.22;83.59;100357.38;5050507;28;19921;-71
2021/10/13 03:24:25;;;;;;;;;;;;;;;7.24;83.41;100360.81;5051297;28;20415;-71
2021/10/13 03:26:50;;;;;;;;;;;;;;;7.27;82.94;100363.34;5033997;28;19917;-71
2021/10/13 03:29:16;;;;;;;;;;;;;;;7.29;82.89;100365.03;5033215;28;19921;-71
2021/10/13 03:31:42;;;;;;;;;;;;;;;7.34;83.14;100370.16;5032705;28;19917;-70
2021/10/13 03:34:08;;;;;;;;;;;;;;;7.36;82.90;100365.75;5066043;28;19927;-71
2021/10/13 03:36:46;;;;;;;;;;;;;;;7.38;82.50;100356.03;5070938;28;20104;-71
2021/10/13 03:39:12;;;;;;;;;;;;;;;7.42;82.08;100360.31;5070504;28;19921;-71
2021/10/13 03:41:38;;;;;;;;;;;;;;;7.40;81.99;100353.38;5070115;28;19923;-71
2021/10/13 03:44:03;;;;;;;;;;;;;;;7.42;81.96;100352.44;5070533;28;19920;-70
2021/10/13 03:46:29;;;;;;;;;;;;;;;7.45;81.87;100362.00;5070724;28;19916;-70
2021/10/13 03:48:54;;;;;;;;;;;;;;;7.48;81.49;100360.16;5070740;28;20003;-71
2021/10/13 03:51:19;;;;;;;;;;;;;;;7.52;81.93;100364.41;5070077;28;20005;-69
2021/10/13 03:53:44;;;;;;;;;;;;;;;7.56;82.50;100364.34;5070620;28;19978;-70
2021/10/13 03:56:10;;;;;;;;;;;;;;;7.57;82.29;100360.78;5070794;28;19923;-68
2021/10/13 03:58:36;;;;;;;;;;;;;;;7.60;82.90;100365.97;5070024;28;20303;-69
2021/10/13 04:01:01;;;;;;;;;;;;;;;7.62;82.20;100378.13;5069469;28;19920;-69
2021/10/13 04:03:26;;;;;;;;;;;;;;;7.69;82.38;100374.44;5052405;28;19924;-69
2021/10/13 04:05:51;;;;;;;;;;;;;;;7.74;81.61;100371.69;5070800;28;19917;-70
2021/10/13 04:08:16;;;;;;;;;;;;;;;7.77;81.22;100376.84;5070241;28;19921;-70
2021/10/13 04:10:42;;;;;;;;;;;;;;;7.80;81.32;100386.38;5051439;28;19921;-70
2021/10/13 04:13:07;;;;;;;;;;;;;;;7.83;81.25;100386.31;5069958;28;19947;-71
2021/10/13 04:15:32;;;;;;;;;;;;;;;7.84;81.82;100380.16;5069868;28;20372;-71
2021/10/13 04:17:58;;;;;;;;;;;;;;;7.87;82.12;100393.19;5068589;28;20429;-69
2021/10/13 04:20:23;;;;;;;;;;;;;;;7.86;80.93;100389.72;5068071;28;20358;-69
2021/10/13 04:22:48;;;;;;;;;;;;;;;7.87;81.94;100391.41;5070618;28;19962;-68
2021/10/13 04:25:14;;;;;;;;;;;;;;;7.88;81.92;100390.53;5069966;28;19986;-70
2021/10/13 04:27:40;;;;;;;;;;;;;;;7.89;81.84;100386.13;5070128;28;19955;-70
2021/10/13 04:30:06;;;;;;;;;;;;;;;7.88;81.27;100387.91;5068784;28;20394;-70
2021/10/13 04:32:31;;;;;;;;;;;;;;;7.85;81.54;100384.50;5069580;28;20010;-70
2021/10/13 04:34:57;;;;;;;;;;;;;;;7.83;81.58;100395.06;5069651;28;19976;-70
2021/10/13 04:37:22;;;;;;;;;;;;;;;7.85;80.91;100398.50;5070772;28;20565;-70
2021/10/13 04:39:47;;;;;;;;;;;;;;;7.86;80.64;100402.84;5069886;28;20387;-70
2021/10/13 04:42:12;;;;;;;;;;;;;;;7.86;81.62;100394.97;5068789;28;19916;-68
2021/10/13 04:44:38;;;;;;;;;;;;;;;7.88;81.42;100397.56;5069637;28;19938;-68
2021/10/13 04:47:03;;;;;;;;;;;;;;;7.86;81.70;100392.34;5069827;28;19923;-70
2021/10/13 04:49:29;;;;;;;;;;;;;;;7.86;81.51;100391.47;5051773;28;20291;-70
2021/10/13 04:51:55;;;;;;;;;;;;;;;7.87;81.66;100403.69;5051419;28;19916;-69
2021/10/13 04:54:21;;;;;;;;;;;;;;;7.88;82.11;100387.06;5070661;28;19917;-69
2021/10/13 04:56:46;;;;;;;;;;;;;;;7.90;82.00;100400.97;5075023;28;19923;-70
2021/10/13 04:59:11;;;;;;;;;;;;;;;7.92;82.18;100394.78;5071135;28;20343;-70
2021/10/13 05:01:36;;;;;;;;;;;;;;;7.87;82.59;100391.41;5079307;28;19923;-69
2021/10/13 05:04:02;;;;;;;;;;;;;;;7.89;82.10;100389.63;5080067;28;19942;-70
2021/10/13 05:06:27;;;;;;;;;;;;;;;7.87;82.28;100387.94;5079720;28;19928;-70
2021/10/13 05:08:52;;;;;;;;;;;;;;;7.83;82.69;100388.94;5080229;28;19966;-70
2021/10/13 05:11:17;;;;;;;;;;;;;;;7.84;82.51;100383.63;5077955;28;19917;-70
2021/10/13 05:13:42;;;;;;;;;;;;;;;7.83;81.72;100381.06;5078126;28;19923;-70
2021/10/13 05:16:08;;;;;;;;;;;;;;;7.80;81.56;100384.66;5079290;28;19921;-70
2021/10/13 05:18:34;;;;;;;;;;;;;;;7.78;82.01;100390.81;5077547;28;19924;-69
2021/10/13 05:20:59;;;;;;;;;;;;;;;7.74;81.74;100396.16;5077374;28;19921;-68
2021/10/13 05:23:25;;;;;;;;;;;;;;;7.71;81.17;100387.53;5069431;28;19923;-70
2021/10/13 05:25:50;;;;;;;;;;;;;;;7.68;82.46;100392.88;5071020;28;19923;-70
2021/10/13 05:28:15;;;;;;;;;;;;;;;7.65;82.31;100406.03;5051320;28;19971;-70
2021/10/13 05:30:40;;;;;;;;;;;;;;;7.63;82.08;100406.09;5068595;28;20402;-70
2021/10/13 05:33:06;;;;;;;;;;;;;;;7.57;82.49;100408.88;5051613;28;19921;-69
2021/10/13 05:35:31;;;;;;;;;;;;;;;7.52;82.04;100408.16;5051457;28;20005;-69
2021/10/13 05:37:57;;;;;;;;;;;;;;;7.49;83.00;100414.34;5069573;28;19925;-71
2021/10/13 05:40:22;;;;;;;;;;;;;;;7.47;82.85;100416.13;5069462;28;20000;-69
2021/10/13 05:42:47;;;;;;;;;;;;;;;7.49;82.87;100413.47;5066700;28;20372;-69
2021/10/13 05:45:12;;;;;;;;;;;;;;;7.49;82.11;100416.09;5049841;28;19917;-70
2021/10/13 05:47:37;;;;;;;;;;;;;;;7.51;81.77;100422.19;5049985;28;19920;-69
2021/10/13 05:50:03;;;;;;;;;;;;;;;7.52;82.43;100419.50;5048953;28;19917;-69
2021/10/13 05:52:28;;;;;;;;;;;;;;;7.55;81.97;100422.94;5049538;28;19960;-70
2021/10/13 05:54:53;;;;;;;;;;;;;;;7.52;82.15;100430.00;5050161;28;19921;-69
2021/10/13 05:57:19;;;;;;;;;;;;;;;7.53;81.90;100428.22;5049335;28;19917;-70
2021/10/13 05:59:47;;;;;;;;;;;;;;;7.54;81.77;100424.72;5049984;28;19929;-69
2021/10/13 06:02:12;;;;;;;;;;;;;;;7.55;81.93;100430.81;5048299;28;20314;-69
2021/10/13 06:04:38;;;;;;;;;;;;;;;7.57;81.74;100436.88;5050720;28;19956;-70
2021/10/13 06:07:03;;;;;;;;;;;;;;;7.58;81.86;100435.97;5049509;28;19917;-69
2021/10/13 06:09:28;;;;;;;;;;;;;;;7.58;82.13;100444.72;5049393;28;19924;-69
2021/10/13 06:11:53;;;;;;;;;;;;;;;7.58;82.68;100442.09;5031031;28;19917;-69
2021/10/13 06:14:19;;;;;;;;;;;;;;;7.63;82.62;100455.09;5031644;28;19933;-70
2021/10/13 06:16:44;;;;;;;;;;;;;;;7.66;81.56;100453.25;5051823;28;19925;-70
2021/10/13 06:19:09;;;;;;;;;;;;;;;7.71;81.82;100466.25;5049688;28;20525;-69
2021/10/13 06:21:34;;;;;;;;;;;;;;;7.70;80.84;100454.03;5049764;28;19917;-70
2021/10/13 06:24:00;;;;;;;;;;;;;;;7.69;80.97;100457.56;5049896;28;19920;-70
2021/10/13 06:26:25;;;;;;;;;;;;;;;7.67;81.46;100457.59;5049874;28;19917;-70
2021/10/13 06:28:50;;;;;;;;;;;;;;;7.72;81.29;100465.34;5053271;28;19921;-70
2021/10/13 06:31:16;;;;;;;;;;;;;;;7.76;81.85;100460.88;5052578;28;19966;-70
2021/10/13 06:33:41;;;;;;;;;;;;;;;7.81;81.88;100464.25;5052104;28;20315;-70
2021/10/13 06:36:07;;;;;;;;;;;;;;;7.85;81.60;100463.25;5052830;28;19967;-69
2021/10/13 06:38:32;;;;;;;;;;;;;;;7.86;80.98;100475.47;5054683;28;19977;-68
2021/10/13 06:40:58;;;;;;;;;;;;;;;7.86;80.73;100476.34;5052351;28;20367;-69
2021/10/13 06:43:24;;;;;;;;;;;;;;;7.89;81.00;100483.28;5052793;28;19920;-70
2021/10/13 06:45:49;;;;;;;;;;;;;;;7.91;81.08;100481.47;5034722;28;19925;-70
2021/10/13 06:48:14;;;;;;;;;;;;;;;7.99;80.80;100492.63;5052009;28;19921;-70
2021/10/13 06:50:39;;;;;;;;;;;;;;;8.05;80.58;100491.56;5017293;28;19917;-68
2021/10/13 06:53:05;;;;;;;;;;;;;;;8.05;80.58;100496.81;5033737;28;19924;-71
2021/10/13 06:55:30;;;;;;;;;;;;;;;8.12;81.47;100503.63;5033848;28;19924;-71
2021/10/13 06:57:56;;;;;;;;;;;;;;;8.14;80.83;100505.31;5054288;28;20015;-70
2021/10/13 07:00:21;;;;;;;;;;;;;;;8.17;81.05;100513.13;5051273;28;20345;-70
2021/10/13 07:02:46;;;;;;;;;;;;;;;8.21;79.86;100510.41;5051167;28;19967;-70
2021/10/13 07:05:12;;;;;;;;;;;;;;;8.25;80.01;100505.03;5057477;28;19925;-69
2021/10/13 07:07:44;;;;;;;;;;;;;;;8.29;79.68;100506.66;5062973;28;19931;-70
2021/10/13 07:10:09;;;;;;;;;;;;;;;8.33;80.13;100513.56;5061068;28;19917;-69
2021/10/13 07:12:35;;;;;;;;;;;;;;;8.38;79.91;100500.28;5055923;28;19920;-69
2021/10/13 07:15:01;;;;;;;;;;;;;;;8.39;79.67;100499.38;5052131;28;19917;-70
2021/10/13 07:17:26;;;;;;;;;;;;;;;8.41;80.42;100500.22;5034651;28;19925;-70
2021/10/13 07:19:51;;;;;;;;;;;;;;;8.43;79.92;100494.94;5059833;28;19924;-69
2021/10/13 07:22:16;;;;;;;;;;;;;;;8.44;80.10;100505.41;5045395;28;19925;-70
2021/10/13 07:24:42;;;;;;;;;;;;;;;8.48;80.43;100491.25;5072175;28;19928;-70
2021/10/13 07:27:07;;;;;;;;;;;;;;;8.55;80.63;100502.47;5071941;28;19955;-70
2021/10/13 07:29:40;;;;;;;;;;;;;;;8.66;80.52;100508.25;5073193;28;19959;-69
2021/10/13 07:32:05;;;;;;;;;;;;;;;8.80;81.02;100513.09;5074033;28;19924;-70
2021/10/13 07:34:30;;;;;;;;;;;;;;;8.90;80.33;100511.91;5055711;28;19974;-70
2021/10/13 07:36:55;;;;;;;;;;;;;;;8.91;78.52;100510.13;5073528;28;19966;-70
2021/10/13 07:39:21;;;;;;;;;;;;;;;8.97;78.59;100515.22;5071685;28;19966;-70
2021/10/13 07:41:46;;;;;;;;;;;;;;;9.10;79.42;100518.31;5065583;28;19924;-70
2021/10/13 07:44:12;;;;;;;;;;;;;;;9.13;79.44;100520.84;5037702;28;20619;-71
2021/10/13 07:46:37;;;;;;;;;;;;;;;9.14;78.47;100522.59;5053868;28;20062;-70
2021/10/13 07:49:02;;;;;;;;;;;;;;;9.14;78.06;100520.81;5046208;28;20431;-72
2021/10/13 07:51:27;;;;;;;;;;;;;;;9.15;78.61;100533.03;5047730;28;19928;-72
2021/10/13 07:53:53;;;;;;;;;;;;;;;9.19;79.34;100523.31;5060865;28;19924;-71
2021/10/13 07:56:18;;;;;;;;;;;;;;;9.20;78.75;100517.97;5052517;28;19925;-71
2021/10/13 07:58:43;;;;;;;;;;;;;;;9.23;78.39;100528.44;5039099;28;20015;-72
2021/10/13 08:01:08;;;;;;;;;;;;;;;9.22;78.54;100526.69;5053319;28;19921;-71
2021/10/13 08:03:33;;;;;;;;;;;;;;;9.22;78.14;100524.06;5045750;28;19959;-73
2021/10/13 08:05:59;;;;;;;;;;;;;;;9.18;77.94;100529.47;5045256;28;19921;-72
2021/10/13 08:08:24;;;;;;;;;;;;;;;9.23;78.82;100533.69;5045508;28;20427;-72
2021/10/13 08:10:49;;;;;;;;;;;;;;;9.31;78.79;100536.06;5044748;28;19927;-73
2021/10/13 08:13:14;;;;;;;;;;;;;;;9.32;78.38;100537.78;5044729;28;19928;-73
2021/10/13 08:15:40;;;;;;;;;;;;;;;9.32;78.17;100523.78;5044692;28;19920;-71
2021/10/13 08:18:05;;;;;;;;;;;;;;;9.36;77.86;100531.53;5043766;28;19970;-73
2021/10/13 08:20:30;;;;;;;;;;;;;;;9.40;78.00;100525.25;5044168;28;19963;-72
2021/10/13 08:22:56;;;;;;;;;;;;;;;9.45;78.94;100522.44;5029106;28;19959;-72
2021/10/13 08:25:21;;;;;;;;;;;;;;;9.53;77.82;100533.59;5026328;28;19932;-70
2021/10/13 08:27:46;;;;;;;;;;;;;;;9.58;77.48;100534.31;5025350;28;19921;-74
2021/10/13 08:30:12;;;;;;;;;;;;;;;9.63;77.28;100527.13;5043387;28;20475;-70
2021/10/13 08:32:37;;;;;;;;;;;;;;;9.76;77.71;100527.56;5043375;28;19921;-69
2021/10/13 08:35:04;;;;;;;;;;;;;;;9.92;77.03;100529.66;5041454;28;19920;-71
2021/10/13 08:37:29;;;;;;;;;;;;;;;10.10;75.30;100532.53;5040874;28;19998;-72
2021/10/13 08:39:54;;;;;;;;;;;;;;;10.24;75.04;100534.69;5044291;28;19946;-73
2021/10/13 08:42:20;;;;;;;;;;;;;;;10.32;75.31;100529.16;5043131;28;19921;-71
2021/10/13 08:44:45;;;;;;;;;;;;;;;10.30;74.55;100533.63;5025064;28;19927;-73
2021/10/13 08:47:11;;;;;;;;;;;;;;;10.34;74.94;100535.25;5044367;28;19928;-73
2021/10/13 08:49:38;;;;;;;;;;;;;;;10.50;74.12;100531.09;5043713;28;19924;-71
2021/10/13 08:52:07;;;;;;;;;;;;;;;10.86;72.54;100530.66;5058871;28;19928;-72
2021/10/13 08:54:32;;;;;;;;;;;;;;;10.76;72.65;100526.66;5051063;28;19947;-71
2021/10/13 08:56:57;;;;;;;;;;;;;;;11.15;71.48;100531.31;5073347;28;20404;-73
2021/10/13 08:59:41;;;;;;;;;;;;;;;11.64;69.80;100526.66;5040922;28;19936;-72
2021/10/13 09:02:08;;;;;;;;;;;;;;;12.42;67.47;100527.72;5062071;28;19955;-71
2021/10/13 09:04:33;;;;;;;;;;;;;;;13.49;64.57;100522.69;5046720;28;19978;-72
2021/10/13 09:07:02;;;;;;;;;;;;;;;14.35;61.86;100536.00;5076564;28;20566;-70
2021/10/13 09:09:30;;;;;;;;;;;;;;;15.17;58.33;100529.78;5061793;28;20269;-71
2021/10/13 09:11:56;;;;;;;;;;;;;;;15.55;56.65;100530.25;5062356;28;19924;-72
2021/10/13 09:14:24;;;;;;;;;;;;;;;15.46;55.97;100522.81;5062298;28;20231;-69
2021/10/13 09:17:09;;;;;;;;;;;;;;;15.15;57.87;100527.22;5045029;28;19925;-72
2021/10/13 09:19:36;;;;;;;;;;;;;;;14.74;58.65;100525.09;5063111;28;19960;-70
2021/10/13 09:22:04;;;;;;;;;;;;;;;14.74;59.33;100525.09;5060999;28;20027;-69
2021/10/13 09:24:30;;;;;;;;;;;;;;;14.89;58.89;100527.81;5062636;28;19931;-72
2021/10/13 09:26:56;;;;;;;;;;;;;;;15.20;58.47;100530.47;5063712;28;19924;-73
2021/10/13 09:29:22;;;;;;;;;;;;;;;15.59;56.78;100537.09;5071505;28;19926;-72
2021/10/13 09:31:55;;;;;;;;;;;;;;;16.09;55.92;100533.28;5054279;28;19940;-73
2021/10/13 09:34:20;;;;;;;;;;;;;;;16.43;55.08;100533.03;5062677;28;20096;-70
2021/10/13 09:36:50;;;;;;;;;;;;;;;16.43;53.41;100539.22;5063624;28;20039;-72
2021/10/13 09:39:16;;;;;;;;;;;;;;;15.97;54.47;100541.13;5050443;28;19959;-72
2021/10/13 09:42:00;;;;;;;;;;;;;;;15.37;56.27;100544.59;5042426;28;19959;-71
2021/10/13 09:44:27;;;;;;;;;;;;;;;14.80;58.23;100547.78;5042977;28;20525;-72
2021/10/13 09:46:55;;;;;;;;;;;;;;;14.63;59.46;100540.72;5042774;28;19927;-71
2021/10/13 09:49:30;;;;;;;;;;;;;;;14.69;59.13;100542.16;5051454;28;19927;-71
2021/10/13 09:51:59;;;;;;;;;;;;;;;14.65;59.43;100540.66;5062320;28;19928;-72
2021/10/13 09:54:25;;;;;;;;;;;;;;;15.14;57.26;100540.59;5063408;28;20252;-71
2021/10/13 09:56:51;;;;;;;;;;;;;;;15.00;57.80;100538.69;5062524;28;19921;-72
2021/10/13 09:59:17;;;;;;;;;;;;;;;14.76;57.86;100536.44;5063330;28;20031;-71
2021/10/13 10:01:44;;;;;;;;;;;;;;;14.69;59.52;100532.41;5064105;28;20011;-71
2021/10/13 10:04:11;;;;;;;;;;;;;;;14.97;58.51;100539.72;5047979;28;20578;-72
2021/10/13 10:06:37;;;;;;;;;;;;;;;14.77;59.02;100538.19;5044906;28;20387;-72
2021/10/13 10:09:04;;;;;;;;;;;;;;;15.01;58.13;100551.03;5058685;28;20003;-71
2021/10/13 10:11:29;;;;;;;;;;;;;;;14.93;58.34;100547.94;5066514;28;19920;-71
2021/10/13 10:13:55;;;;;;;;;;;;;;;14.61;59.25;100553.22;5066267;28;20504;-71
2021/10/13 10:16:31;;;;;;;;;;;;;;;14.29;58.93;100553.09;5065941;28;19943;-72
2021/10/13 10:19:15;;;;;;;;;;;;;;;14.08;60.06;100559.53;5064703;28;20487;-71
2021/10/13 10:21:49;;;;;;;;;;;;;;;13.87;61.02;100559.66;5043115;28;19924;-72
2021/10/13 10:24:33;;;;;;;;;;;;;;;13.71;62.19;100548.13;5058988;28;19921;-71
2021/10/13 10:27:17;;;;;;;;;;;;;;;13.58;62.61;100557.59;5056129;28;19921;-71
2021/10/13 10:29:42;;;;;;;;;;;;;;;13.42;63.08;100550.41;5047067;28;20342;-72
2021/10/13 10:32:18;;;;;;;;;;;;;;;13.35;62.77;100556.09;5031622;28;20025;-71
2021/10/13 10:35:02;;;;;;;;;;;;;;;13.24;62.65;100559.19;5054726;28;19920;-74
2021/10/13 10:37:42;;;;;;;;;;;;;;;13.23;63.55;100554.84;5046014;28;20783;-73
2021/10/13 10:40:11;;;;;;;;;;;;;;;13.48;62.31;100559.84;5042892;28;20694;-73
2021/10/13 10:42:47;;;;;;;;;;;;;;;13.53;61.52;100557.81;5043989;28;19977;-73
2021/10/13 10:45:15;;;;;;;;;;;;;;;13.39;61.43;100553.22;5061995;28;19921;-73
2021/10/13 10:47:52;;;;;;;;;;;;;;;13.38;62.69;100553.28;5075281;28;19924;-73
2021/10/13 10:50:29;;;;;;;;;;;;;;;13.39;61.76;100555.88;5057026;28;20009;-74
2021/10/13 10:53:07;;;;;;;;;;;;;;;13.48;62.79;100560.69;5065922;28;19920;-73
2021/10/13 10:55:36;;;;;;;;;;;;;;;13.42;62.08;100561.00;5055195;28;19920;-72
2021/10/13 10:58:14;;;;;;;;;;;;;;;13.36;61.04;100563.09;5046666;28;19925;-76
2021/10/13 11:00:39;;;;;;;;;;;;;;;13.39;62.21;100568.22;5057691;28;20006;-72
2021/10/13 11:03:15;;;;;;;;;;;;;;;13.43;61.35;100568.00;5065677;28;19920;-73
2021/10/13 11:05:41;;;;;;;;;;;;;;;13.40;60.20;100567.31;5065607;28;19920;-71
2021/10/13 11:08:08;;;;;;;;;;;;;;;13.35;60.93;100572.84;5048675;28;19928;-72
2021/10/13 11:10:34;;;;;;;;;;;;;;;13.38;60.34;100570.03;4994070;28;20005;-73
2021/10/13 11:12:59;;;;;;;;;;;;;;;13.36;59.63;100571.88;5062222;28;20682;-74
2021/10/13 11:15:25;;;;;;;;;;;;;;;13.40;61.29;100570.81;5058083;28;19921;-74
2021/10/13 11:17:51;;;;;;;;;;;;;;;13.56;60.58;100570.94;5063952;28;20314;-73
2021/10/13 11:20:17;;;;;;;;;;;;;;;13.52;59.95;100577.31;5065830;28;19925;-72
2021/10/13 11:22:43;;;;;;;;;;;;;;;13.58;61.28;100581.44;5046665;28;19977;-70
2021/10/13 11:25:15;;;;;;;;;;;;;;;13.64;60.94;100586.47;5042708;28;19928;-71
2021/10/13 11:27:41;;;;;;;;;;;;;;;13.75;61.23;100577.03;5048159;28;20439;-71
2021/10/13 11:30:17;;;;;;;;;;;;;;;13.77;60.06;100579.59;5048786;28;19932;-71
2021/10/13 11:32:42;;;;;;;;;;;;;;;13.71;60.52;100572.84;5045594;28;19920;-71
2021/10/13 11:35:08;;;;;;;;;;;;;;;13.81;60.86;100567.06;5043995;28;19981;-72
2021/10/13 11:37:34;;;;;;;;;;;;;;;13.93;59.49;100571.72;5036813;28;20005;-73
2021/10/13 11:39:59;;;;;;;;;;;;;;;13.88;59.13;100581.72;5063492;28;20005;-71
2021/10/13 11:42:25;;;;;;;;;;;;;;;13.74;59.32;100574.47;5040695;28;19960;-72
2021/10/13 11:44:51;;;;;;;;;;;;;;;13.70;59.98;100576.41;5027748;28;21221;-73
2021/10/13 11:47:26;;;;;;;;;;;;;;;13.67;60.31;100578.34;5035901;28;19984;-73
2021/10/13 11:49:56;;;;;;;;;;;;;;;13.55;59.59;100577.16;5049444;28;19960;-73
2021/10/13 11:52:22;;;;;;;;;;;;;;;13.49;60.62;100582.78;5042797;28;19920;-73
2021/10/13 11:54:47;;;;;;;;;;;;;;;13.45;60.40;100578.53;5045021;28;19928;-73
2021/10/13 11:57:15;;;;;;;;;;;;;;;13.43;60.20;100569.81;5027471;28;20582;-73
2021/10/13 11:59:41;;;;;;;;;;;;;;;13.40;60.92;100572.63;5040880;28;19925;-72
2021/10/13 12:02:13;;;;;;;;;;;;;;;13.39;61.88;100571.75;5049965;28;20406;-73
2021/10/13 12:04:52;;;;;;;;;;;;;;;13.37;62.91;100578.06;5064014;28;19916;-72
2021/10/13 12:07:21;;;;;;;;;;;;;;;13.44;62.99;100583.00;5064253;28;19924;-72
2021/10/13 12:09:49;;;;;;;;;;;;;;;13.38;62.33;100579.78;5015775;28;19920;-74
2021/10/13 12:12:14;;;;;;;;;;;;;;;13.43;61.69;100577.75;5015656;28;19963;-74
2021/10/13 12:14:40;;;;;;;;;;;;;;;13.51;62.69;100576.47;5064362;28;19982;-71
2021/10/13 12:17:21;;;;;;;;;;;;;;;13.60;62.08;100582.25;5063560;28;20391;-72
2021/10/13 12:19:46;;;;;;;;;;;;;;;13.56;61.77;100575.38;5036756;28;20323;-72
2021/10/13 12:22:11;;;;;;;;;;;;;;;13.61;63.88;100554.78;5062916;28;19931;-73
2021/10/13 12:24:37;;;;;;;;;;;;;;;13.66;62.31;100558.97;5062441;28;20023;-72
2021/10/13 12:27:08;;;;;;;;;;;;;;;13.84;68.16;100562.47;5052657;28;19967;-73
2021/10/13 12:29:42;;;;;;;;;;;;;;;13.75;62.14;100557.63;5043865;28;19925;-72
2021/10/13 12:32:15;;;;;;;;;;;;;;;13.67;63.38;100560.66;5043446;28;19920;-73
2021/10/13 12:34:40;;;;;;;;;;;;;;;13.64;62.53;100552.88;5043789;28;19921;-72
2021/10/13 12:37:07;;;;;;;;;;;;;;;13.66;62.29;100553.66;5043383;28;19924;-72
2021/10/13 12:39:34;;;;;;;;;;;;;;;13.50;61.00;100555.34;5040449;28;19955;-72
2021/10/13 12:42:04;;;;;;;;;;;;;;;13.34;63.02;100543.75;5062896;28;19927;-73
2021/10/13 12:44:30;;;;;;;;;;;;;;;13.23;62.91;100545.13;5063540;28;20464;-72